sensor_id;sensor_type;location;lat;lon;timestamp;P1;durP1;ratioP1;P2;durP2;ratioP2
36353;SDS011;22383;51.114;13.666;2023-03-01T00:01:42;14.88;;;7.95;;
36353;SDS011;22383;51.114;13.666;2023-03-01T00:04:09;11.73;;;8.20;;
36353;SDS011;22383;51.114;13.666;2023-03-01T00:06:38;30.90;;;10.18;;
36353;SDS011;22383;51.114;13.666;2023-03-01T00:11:40;16.10;;;8.50;;
36353;SDS011;22383;51.114;13.666;2023-03-01T00:14:07;25.00;;;10.65;;
36353;SDS011;22383;51.114;13.666;2023-03-01T00:16:39;27.98;;;10.05;;
36353;SDS011;22383;51.114;13.666;2023-03-01T00:19:09;16.77;;;8.75;;
36353;SDS011;22383;51.114;13.666;2023-03-01T00:21:41;26.60;;;12.07;;
36353;SDS011;22383;51.114;13.666;2023-03-01T00:24:11;35.17;;;11.98;;
36353;SDS011;22383;51.114;13.666;2023-03-01T00:26:38;22.10;;;9.32;;
36353;SDS011;22383;51.114;13.666;2023-03-01T00:29:05;19.67;;;10.85;;
36353;SDS011;22383;51.114;13.666;2023-03-01T00:31:34;34.15;;;11.82;;
36353;SDS011;22383;51.114;13.666;2023-03-01T00:34:05;18.50;;;9.20;;
36353;SDS011;22383;51.114;13.666;2023-03-01T00:36:36;28.17;;;11.43;;
36353;SDS011;22383;51.114;13.666;2023-03-01T00:39:14;12.82;;;7.60;;
36353;SDS011;22383;51.114;13.666;2023-03-01T00:41:44;16.33;;;9.13;;
36353;SDS011;22383;51.114;13.666;2023-03-01T00:44:13;25.70;;;9.05;;
36353;SDS011;22383;51.114;13.666;2023-03-01T00:46:41;16.98;;;9.13;;
36353;SDS011;22383;51.114;13.666;2023-03-01T00:49:15;17.75;;;8.18;;
36353;SDS011;22383;51.114;13.666;2023-03-01T00:54:10;26.02;;;8.48;;
36353;SDS011;22383;51.114;13.666;2023-03-01T00:56:37;25.85;;;9.90;;
36353;SDS011;22383;51.114;13.666;2023-03-01T00:59:04;25.50;;;8.50;;
36353;SDS011;22383;51.114;13.666;2023-03-01T01:01:31;16.27;;;8.00;;
36353;SDS011;22383;51.114;13.666;2023-03-01T01:04:11;26.00;;;10.57;;
36353;SDS011;22383;51.114;13.666;2023-03-01T01:06:45;21.52;;;9.93;;
36353;SDS011;22383;51.114;13.666;2023-03-01T01:09:19;23.65;;;9.25;;
36353;SDS011;22383;51.114;13.666;2023-03-01T01:11:47;29.00;;;9.43;;
36353;SDS011;22383;51.114;13.666;2023-03-01T01:14:16;18.40;;;8.32;;
36353;SDS011;22383;51.114;13.666;2023-03-01T01:16:49;20.65;;;9.18;;
36353;SDS011;22383;51.114;13.666;2023-03-01T01:19:16;17.85;;;9.48;;
36353;SDS011;22383;51.114;13.666;2023-03-01T01:21:44;23.83;;;9.75;;
36353;SDS011;22383;51.114;13.666;2023-03-01T01:24:15;31.30;;;8.07;;
36353;SDS011;22383;51.114;13.666;2023-03-01T01:26:45;21.90;;;9.13;;
36353;SDS011;22383;51.114;13.666;2023-03-01T01:29:17;21.55;;;9.82;;
36353;SDS011;22383;51.114;13.666;2023-03-01T01:31:46;13.52;;;8.05;;
36353;SDS011;22383;51.114;13.666;2023-03-01T01:34:15;36.67;;;9.65;;
36353;SDS011;22383;51.114;13.666;2023-03-01T01:36:49;33.53;;;11.45;;
36353;SDS011;22383;51.114;13.666;2023-03-01T01:39:21;37.47;;;12.68;;
36353;SDS011;22383;51.114;13.666;2023-03-01T01:41:48;16.67;;;9.10;;
36353;SDS011;22383;51.114;13.666;2023-03-01T01:44:17;18.73;;;8.80;;
36353;SDS011;22383;51.114;13.666;2023-03-01T01:46:58;22.45;;;8.75;;
36353;SDS011;22383;51.114;13.666;2023-03-01T01:49:46;25.00;;;10.77;;
36353;SDS011;22383;51.114;13.666;2023-03-01T01:52:29;15.00;;;8.35;;
36353;SDS011;22383;51.114;13.666;2023-03-01T01:55:02;29.30;;;9.25;;
36353;SDS011;22383;51.114;13.666;2023-03-01T01:57:34;16.73;;;9.05;;
36353;SDS011;22383;51.114;13.666;2023-03-01T02:02:45;24.27;;;9.52;;
36353;SDS011;22383;51.114;13.666;2023-03-01T02:08:11;14.68;;;8.05;;
36353;SDS011;22383;51.114;13.666;2023-03-01T02:10:39;29.02;;;9.73;;
36353;SDS011;22383;51.114;13.666;2023-03-01T02:13:08;25.38;;;9.77;;
36353;SDS011;22383;51.114;13.666;2023-03-01T02:15:37;20.13;;;8.27;;
36353;SDS011;22383;51.114;13.666;2023-03-01T02:18:06;26.35;;;9.82;;
36353;SDS011;22383;51.114;13.666;2023-03-01T02:23:30;12.43;;;8.02;;
36353;SDS011;22383;51.114;13.666;2023-03-01T02:28:47;11.13;;;7.68;;
36353;SDS011;22383;51.114;13.666;2023-03-01T02:31:17;17.73;;;9.80;;
36353;SDS011;22383;51.114;13.666;2023-03-01T02:34:06;18.15;;;8.00;;
36353;SDS011;22383;51.114;13.666;2023-03-01T02:36:37;15.07;;;7.88;;
36353;SDS011;22383;51.114;13.666;2023-03-01T02:39:10;12.90;;;7.40;;
36353;SDS011;22383;51.114;13.666;2023-03-01T02:41:48;15.32;;;7.25;;
36353;SDS011;22383;51.114;13.666;2023-03-01T02:44:21;15.60;;;8.13;;
36353;SDS011;22383;51.114;13.666;2023-03-01T02:46:53;20.30;;;9.13;;
36353;SDS011;22383;51.114;13.666;2023-03-01T02:49:27;22.08;;;8.23;;
36353;SDS011;22383;51.114;13.666;2023-03-01T02:52:21;20.23;;;7.35;;
36353;SDS011;22383;51.114;13.666;2023-03-01T02:55:09;22.30;;;7.38;;
36353;SDS011;22383;51.114;13.666;2023-03-01T02:57:40;15.18;;;8.05;;
36353;SDS011;22383;51.114;13.666;2023-03-01T03:00:17;22.88;;;9.32;;
36353;SDS011;22383;51.114;13.666;2023-03-01T03:02:52;19.77;;;8.50;;
36353;SDS011;22383;51.114;13.666;2023-03-01T03:05:24;15.05;;;7.13;;
36353;SDS011;22383;51.114;13.666;2023-03-01T03:07:56;31.67;;;10.63;;
36353;SDS011;22383;51.114;13.666;2023-03-01T03:10:31;23.63;;;7.43;;
36353;SDS011;22383;51.114;13.666;2023-03-01T03:13:10;24.83;;;9.55;;
36353;SDS011;22383;51.114;13.666;2023-03-01T03:15:41;21.52;;;9.15;;
36353;SDS011;22383;51.114;13.666;2023-03-01T03:18:11;23.52;;;9.15;;
36353;SDS011;22383;51.114;13.666;2023-03-01T03:20:40;14.27;;;8.75;;
36353;SDS011;22383;51.114;13.666;2023-03-01T03:23:09;19.08;;;9.82;;
36353;SDS011;22383;51.114;13.666;2023-03-01T03:25:37;13.27;;;8.35;;
36353;SDS011;22383;51.114;13.666;2023-03-01T03:30:42;12.43;;;7.28;;
36353;SDS011;22383;51.114;13.666;2023-03-01T03:33:19;15.50;;;8.75;;
36353;SDS011;22383;51.114;13.666;2023-03-01T03:35:50;20.10;;;8.50;;
36353;SDS011;22383;51.114;13.666;2023-03-01T03:38:21;17.13;;;8.88;;
36353;SDS011;22383;51.114;13.666;2023-03-01T03:41:00;14.35;;;7.80;;
36353;SDS011;22383;51.114;13.666;2023-03-01T03:43:33;23.50;;;8.50;;
36353;SDS011;22383;51.114;13.666;2023-03-01T03:46:03;14.63;;;6.82;;
36353;SDS011;22383;51.114;13.666;2023-03-01T03:48:38;22.30;;;8.00;;
36353;SDS011;22383;51.114;13.666;2023-03-01T03:51:12;14.95;;;8.80;;
36353;SDS011;22383;51.114;13.666;2023-03-01T03:54:12;17.73;;;8.80;;
36353;SDS011;22383;51.114;13.666;2023-03-01T03:56:39;27.52;;;7.13;;
36353;SDS011;22383;51.114;13.666;2023-03-01T03:59:06;15.40;;;7.68;;
36353;SDS011;22383;51.114;13.666;2023-03-01T04:01:33;19.75;;;8.77;;
36353;SDS011;22383;51.114;13.666;2023-03-01T04:04:01;26.75;;;8.80;;
36353;SDS011;22383;51.114;13.666;2023-03-01T04:06:31;28.35;;;9.00;;
36353;SDS011;22383;51.114;13.666;2023-03-01T04:11:29;17.65;;;7.20;;
36353;SDS011;22383;51.114;13.666;2023-03-01T04:13:57;15.23;;;5.88;;
36353;SDS011;22383;51.114;13.666;2023-03-01T04:16:25;17.27;;;10.35;;
36353;SDS011;22383;51.114;13.666;2023-03-01T04:21:20;14.77;;;7.82;;
36353;SDS011;22383;51.114;13.666;2023-03-01T04:26:14;25.45;;;9.80;;
36353;SDS011;22383;51.114;13.666;2023-03-01T04:28:42;20.25;;;9.57;;
36353;SDS011;22383;51.114;13.666;2023-03-01T04:31:13;12.98;;;6.65;;
36353;SDS011;22383;51.114;13.666;2023-03-01T04:33:45;23.58;;;7.72;;
36353;SDS011;22383;51.114;13.666;2023-03-01T04:36:14;18.42;;;7.93;;
36353;SDS011;22383;51.114;13.666;2023-03-01T04:38:43;23.60;;;11.20;;
36353;SDS011;22383;51.114;13.666;2023-03-01T04:41:15;16.35;;;8.43;;
36353;SDS011;22383;51.114;13.666;2023-03-01T04:43:44;18.92;;;8.30;;
36353;SDS011;22383;51.114;13.666;2023-03-01T04:46:13;55.15;;;10.18;;
36353;SDS011;22383;51.114;13.666;2023-03-01T04:48:42;17.67;;;10.48;;
36353;SDS011;22383;51.114;13.666;2023-03-01T04:51:11;14.80;;;8.50;;
36353;SDS011;22383;51.114;13.666;2023-03-01T04:53:40;13.23;;;6.22;;
36353;SDS011;22383;51.114;13.666;2023-03-01T04:56:09;19.40;;;10.18;;
36353;SDS011;22383;51.114;13.666;2023-03-01T04:58:36;29.83;;;8.88;;
36353;SDS011;22383;51.114;13.666;2023-03-01T05:01:10;12.73;;;7.90;;
36353;SDS011;22383;51.114;13.666;2023-03-01T05:03:43;18.38;;;7.43;;
36353;SDS011;22383;51.114;13.666;2023-03-01T05:06:11;11.25;;;6.68;;
36353;SDS011;22383;51.114;13.666;2023-03-01T05:08:39;13.45;;;7.13;;
36353;SDS011;22383;51.114;13.666;2023-03-01T05:11:07;22.73;;;7.32;;
36353;SDS011;22383;51.114;13.666;2023-03-01T05:13:36;13.10;;;6.45;;
36353;SDS011;22383;51.114;13.666;2023-03-01T05:16:05;23.40;;;7.50;;
36353;SDS011;22383;51.114;13.666;2023-03-01T05:18:33;22.75;;;8.90;;
36353;SDS011;22383;51.114;13.666;2023-03-01T05:21:06;17.15;;;7.93;;
36353;SDS011;22383;51.114;13.666;2023-03-01T05:23:43;23.05;;;7.65;;
36353;SDS011;22383;51.114;13.666;2023-03-01T05:28:54;23.55;;;10.05;;
36353;SDS011;22383;51.114;13.666;2023-03-01T05:31:26;7.47;;;5.60;;
36353;SDS011;22383;51.114;13.666;2023-03-01T05:36:21;19.65;;;7.68;;
36353;SDS011;22383;51.114;13.666;2023-03-01T05:38:48;13.65;;;6.93;;
36353;SDS011;22383;51.114;13.666;2023-03-01T05:41:15;15.43;;;9.20;;
36353;SDS011;22383;51.114;13.666;2023-03-01T05:43:43;14.63;;;7.47;;
36353;SDS011;22383;51.114;13.666;2023-03-01T05:46:11;16.83;;;7.35;;
36353;SDS011;22383;51.114;13.666;2023-03-01T05:48:40;7.55;;;5.55;;
36353;SDS011;22383;51.114;13.666;2023-03-01T05:51:07;19.73;;;8.50;;
36353;SDS011;22383;51.114;13.666;2023-03-01T05:53:34;31.95;;;10.13;;
36353;SDS011;22383;51.114;13.666;2023-03-01T05:56:05;17.77;;;8.40;;
36353;SDS011;22383;51.114;13.666;2023-03-01T05:58:32;13.60;;;7.90;;
36353;SDS011;22383;51.114;13.666;2023-03-01T06:01:00;20.88;;;10.30;;
36353;SDS011;22383;51.114;13.666;2023-03-01T06:03:27;17.40;;;5.95;;
36353;SDS011;22383;51.114;13.666;2023-03-01T06:05:57;15.10;;;9.57;;
36353;SDS011;22383;51.114;13.666;2023-03-01T06:08:25;8.98;;;5.45;;
36353;SDS011;22383;51.114;13.666;2023-03-01T06:10:54;14.85;;;8.48;;
36353;SDS011;22383;51.114;13.666;2023-03-01T06:13:21;32.40;;;7.97;;
36353;SDS011;22383;51.114;13.666;2023-03-01T06:15:50;13.25;;;7.78;;
36353;SDS011;22383;51.114;13.666;2023-03-01T06:18:18;14.07;;;8.15;;
36353;SDS011;22383;51.114;13.666;2023-03-01T06:20:51;22.63;;;7.93;;
36353;SDS011;22383;51.114;13.666;2023-03-01T06:23:20;20.92;;;9.13;;
36353;SDS011;22383;51.114;13.666;2023-03-01T06:25:48;21.20;;;9.30;;
36353;SDS011;22383;51.114;13.666;2023-03-01T06:28:15;25.70;;;8.95;;
36353;SDS011;22383;51.114;13.666;2023-03-01T06:30:43;13.77;;;8.70;;
36353;SDS011;22383;51.114;13.666;2023-03-01T06:33:10;15.93;;;7.32;;
36353;SDS011;22383;51.114;13.666;2023-03-01T06:35:37;22.92;;;7.35;;
36353;SDS011;22383;51.114;13.666;2023-03-01T06:38:04;16.25;;;8.15;;
36353;SDS011;22383;51.114;13.666;2023-03-01T06:40:33;18.85;;;7.30;;
36353;SDS011;22383;51.114;13.666;2023-03-01T06:43:02;27.65;;;8.13;;
36353;SDS011;22383;51.114;13.666;2023-03-01T06:45:29;14.00;;;7.82;;
36353;SDS011;22383;51.114;13.666;2023-03-01T06:48:06;16.40;;;8.23;;
36353;SDS011;22383;51.114;13.666;2023-03-01T06:50:34;24.65;;;9.70;;
36353;SDS011;22383;51.114;13.666;2023-03-01T06:53:02;22.58;;;8.82;;
36353;SDS011;22383;51.114;13.666;2023-03-01T06:55:29;14.80;;;7.63;;
36353;SDS011;22383;51.114;13.666;2023-03-01T06:58:00;25.00;;;7.30;;
36353;SDS011;22383;51.114;13.666;2023-03-01T07:00:28;17.77;;;9.40;;
36353;SDS011;22383;51.114;13.666;2023-03-01T07:02:58;15.63;;;7.55;;
36353;SDS011;22383;51.114;13.666;2023-03-01T07:05:25;24.23;;;10.20;;
36353;SDS011;22383;51.114;13.666;2023-03-01T07:07:53;25.88;;;7.93;;
36353;SDS011;22383;51.114;13.666;2023-03-01T07:12:47;14.20;;;7.90;;
36353;SDS011;22383;51.114;13.666;2023-03-01T07:15:14;16.02;;;8.18;;
36353;SDS011;22383;51.114;13.666;2023-03-01T07:17:42;22.95;;;10.75;;
36353;SDS011;22383;51.114;13.666;2023-03-01T07:20:11;29.02;;;12.05;;
36353;SDS011;22383;51.114;13.666;2023-03-01T07:22:41;20.58;;;9.73;;
36353;SDS011;22383;51.114;13.666;2023-03-01T07:25:09;15.07;;;8.05;;
36353;SDS011;22383;51.114;13.666;2023-03-01T07:27:37;18.48;;;6.70;;
36353;SDS011;22383;51.114;13.666;2023-03-01T07:30:04;10.30;;;5.60;;
36353;SDS011;22383;51.114;13.666;2023-03-01T07:34:59;13.15;;;6.93;;
36353;SDS011;22383;51.114;13.666;2023-03-01T07:37:26;15.23;;;6.53;;
36353;SDS011;22383;51.114;13.666;2023-03-01T07:39:53;11.02;;;6.32;;
36353;SDS011;22383;51.114;13.666;2023-03-01T07:42:20;23.92;;;9.25;;
36353;SDS011;22383;51.114;13.666;2023-03-01T07:44:48;28.35;;;10.63;;
36353;SDS011;22383;51.114;13.666;2023-03-01T07:47:15;21.70;;;7.60;;
36353;SDS011;22383;51.114;13.666;2023-03-01T07:49:42;22.25;;;10.13;;
36353;SDS011;22383;51.114;13.666;2023-03-01T07:52:10;24.45;;;11.15;;
36353;SDS011;22383;51.114;13.666;2023-03-01T07:54:38;28.25;;;11.48;;
36353;SDS011;22383;51.114;13.666;2023-03-01T07:57:06;18.42;;;8.20;;
36353;SDS011;22383;51.114;13.666;2023-03-01T07:59:33;19.40;;;9.38;;
36353;SDS011;22383;51.114;13.666;2023-03-01T08:02:00;28.02;;;10.57;;
36353;SDS011;22383;51.114;13.666;2023-03-01T08:04:27;22.00;;;9.55;;
36353;SDS011;22383;51.114;13.666;2023-03-01T08:07:04;28.75;;;11.40;;
36353;SDS011;22383;51.114;13.666;2023-03-01T08:09:34;17.42;;;8.82;;
36353;SDS011;22383;51.114;13.666;2023-03-01T08:12:05;26.38;;;9.25;;
36353;SDS011;22383;51.114;13.666;2023-03-01T08:14:32;23.15;;;9.88;;
36353;SDS011;22383;51.114;13.666;2023-03-01T08:16:59;29.38;;;12.05;;
36353;SDS011;22383;51.114;13.666;2023-03-01T08:19:27;22.33;;;8.35;;
36353;SDS011;22383;51.114;13.666;2023-03-01T08:24:25;23.60;;;10.48;;
36353;SDS011;22383;51.114;13.666;2023-03-01T08:26:58;21.90;;;8.27;;
36353;SDS011;22383;51.114;13.666;2023-03-01T08:29:25;20.55;;;7.90;;
36353;SDS011;22383;51.114;13.666;2023-03-01T08:31:52;23.08;;;9.30;;
36353;SDS011;22383;51.114;13.666;2023-03-01T08:34:20;28.17;;;8.75;;
36353;SDS011;22383;51.114;13.666;2023-03-01T08:36:49;33.35;;;7.53;;
36353;SDS011;22383;51.114;13.666;2023-03-01T08:39:19;24.05;;;9.85;;
36353;SDS011;22383;51.114;13.666;2023-03-01T08:41:47;25.00;;;9.20;;
36353;SDS011;22383;51.114;13.666;2023-03-01T08:44:14;15.43;;;8.13;;
36353;SDS011;22383;51.114;13.666;2023-03-01T08:46:43;24.67;;;9.00;;
36353;SDS011;22383;51.114;13.666;2023-03-01T08:49:19;21.35;;;8.50;;
36353;SDS011;22383;51.114;13.666;2023-03-01T08:51:47;26.75;;;8.63;;
36353;SDS011;22383;51.114;13.666;2023-03-01T08:54:15;23.15;;;9.57;;
36353;SDS011;22383;51.114;13.666;2023-03-01T08:56:44;22.67;;;8.30;;
36353;SDS011;22383;51.114;13.666;2023-03-01T08:59:12;29.98;;;8.90;;
36353;SDS011;22383;51.114;13.666;2023-03-01T09:01:41;37.70;;;9.77;;
36353;SDS011;22383;51.114;13.666;2023-03-01T09:04:11;21.33;;;9.13;;
36353;SDS011;22383;51.114;13.666;2023-03-01T09:06:39;26.42;;;8.98;;
36353;SDS011;22383;51.114;13.666;2023-03-01T09:09:12;20.70;;;7.43;;
36353;SDS011;22383;51.114;13.666;2023-03-01T09:11:43;24.83;;;8.82;;
36353;SDS011;22383;51.114;13.666;2023-03-01T09:14:13;22.60;;;9.10;;
36353;SDS011;22383;51.114;13.666;2023-03-01T09:16:40;23.48;;;8.32;;
36353;SDS011;22383;51.114;13.666;2023-03-01T09:19:09;23.60;;;9.13;;
36353;SDS011;22383;51.114;13.666;2023-03-01T09:21:43;21.60;;;9.52;;
36353;SDS011;22383;51.114;13.666;2023-03-01T09:24:20;22.40;;;8.10;;
36353;SDS011;22383;51.114;13.666;2023-03-01T09:26:48;26.30;;;9.80;;
36353;SDS011;22383;51.114;13.666;2023-03-01T09:29:17;31.95;;;12.02;;
36353;SDS011;22383;51.114;13.666;2023-03-01T09:31:44;20.20;;;8.65;;
36353;SDS011;22383;51.114;13.666;2023-03-01T09:34:11;24.45;;;9.25;;
36353;SDS011;22383;51.114;13.666;2023-03-01T09:36:43;21.92;;;8.98;;
36353;SDS011;22383;51.114;13.666;2023-03-01T09:39:10;22.25;;;9.77;;
36353;SDS011;22383;51.114;13.666;2023-03-01T09:44:31;26.83;;;9.15;;
36353;SDS011;22383;51.114;13.666;2023-03-01T09:47:05;23.05;;;9.07;;
36353;SDS011;22383;51.114;13.666;2023-03-01T09:49:39;25.23;;;9.30;;
36353;SDS011;22383;51.114;13.666;2023-03-01T09:52:19;22.27;;;9.07;;
36353;SDS011;22383;51.114;13.666;2023-03-01T09:54:54;24.65;;;9.32;;
36353;SDS011;22383;51.114;13.666;2023-03-01T10:02:48;25.05;;;9.98;;
36353;SDS011;22383;51.114;13.666;2023-03-01T10:11:12;22.85;;;10.20;;
36353;SDS011;22383;51.114;13.666;2023-03-01T10:13:58;28.45;;;9.00;;
36353;SDS011;22383;51.114;13.666;2023-03-01T10:16:43;20.67;;;8.23;;
36353;SDS011;22383;51.114;13.666;2023-03-01T10:19:23;22.85;;;7.88;;
36353;SDS011;22383;51.114;13.666;2023-03-01T10:24:48;24.48;;;8.80;;
36353;SDS011;22383;51.114;13.666;2023-03-01T10:30:09;25.73;;;8.93;;
36353;SDS011;22383;51.114;13.666;2023-03-01T10:32:59;23.85;;;8.20;;
36353;SDS011;22383;51.114;13.666;2023-03-01T10:35:31;19.77;;;7.00;;
36353;SDS011;22383;51.114;13.666;2023-03-01T10:38:12;19.35;;;8.27;;
36353;SDS011;22383;51.114;13.666;2023-03-01T10:40:55;22.83;;;7.80;;
36353;SDS011;22383;51.114;13.666;2023-03-01T10:43:40;20.80;;;8.10;;
36353;SDS011;22383;51.114;13.666;2023-03-01T10:46:27;15.80;;;6.53;;
36353;SDS011;22383;51.114;13.666;2023-03-01T10:49:15;29.45;;;9.38;;
36353;SDS011;22383;51.114;13.666;2023-03-01T10:51:46;18.93;;;7.87;;
36353;SDS011;22383;51.114;13.666;2023-03-01T10:54:22;17.85;;;8.13;;
36353;SDS011;22383;51.114;13.666;2023-03-01T10:56:55;22.13;;;6.68;;
36353;SDS011;22383;51.114;13.666;2023-03-01T10:59:31;24.73;;;8.02;;
36353;SDS011;22383;51.114;13.666;2023-03-01T11:02:23;15.48;;;6.82;;
36353;SDS011;22383;51.114;13.666;2023-03-01T11:07:49;20.40;;;8.00;;
36353;SDS011;22383;51.114;13.666;2023-03-01T11:13:06;21.27;;;7.25;;
36353;SDS011;22383;51.114;13.666;2023-03-01T11:16:05;29.00;;;8.35;;
36353;SDS011;22383;51.114;13.666;2023-03-01T11:18:40;16.23;;;6.10;;
36353;SDS011;22383;51.114;13.666;2023-03-01T11:21:15;17.90;;;6.50;;
36353;SDS011;22383;51.114;13.666;2023-03-01T11:23:45;22.60;;;5.72;;
36353;SDS011;22383;51.114;13.666;2023-03-01T11:26:19;23.02;;;6.25;;
36353;SDS011;22383;51.114;13.666;2023-03-01T11:28:49;17.45;;;5.57;;
36353;SDS011;22383;51.114;13.666;2023-03-01T11:31:22;21.35;;;6.97;;
36353;SDS011;22383;51.114;13.666;2023-03-01T11:33:55;13.35;;;4.95;;
36353;SDS011;22383;51.114;13.666;2023-03-01T11:36:50;19.08;;;6.47;;
36353;SDS011;22383;51.114;13.666;2023-03-01T11:39:31;12.02;;;6.07;;
36353;SDS011;22383;51.114;13.666;2023-03-01T11:42:15;11.68;;;4.95;;
36353;SDS011;22383;51.114;13.666;2023-03-01T11:44:50;13.20;;;6.20;;
36353;SDS011;22383;51.114;13.666;2023-03-01T11:47:30;14.93;;;5.63;;
36353;SDS011;22383;51.114;13.666;2023-03-01T11:53:01;12.93;;;5.30;;
36353;SDS011;22383;51.114;13.666;2023-03-01T11:58:30;12.80;;;5.22;;
36353;SDS011;22383;51.114;13.666;2023-03-01T12:07:00;20.50;;;6.85;;
36353;SDS011;22383;51.114;13.666;2023-03-01T12:15:33;15.32;;;5.90;;
36353;SDS011;22383;51.114;13.666;2023-03-01T12:24:06;18.40;;;6.68;;
36353;SDS011;22383;51.114;13.666;2023-03-01T12:27:10;14.88;;;5.90;;
36353;SDS011;22383;51.114;13.666;2023-03-01T12:29:53;15.73;;;6.10;;
36353;SDS011;22383;51.114;13.666;2023-03-01T12:32:38;14.20;;;6.47;;
36353;SDS011;22383;51.114;13.666;2023-03-01T12:38:41;20.35;;;6.93;;
36353;SDS011;22383;51.114;13.666;2023-03-01T12:46:38;16.92;;;6.68;;
36353;SDS011;22383;51.114;13.666;2023-03-01T12:49:15;16.27;;;6.43;;
36353;SDS011;22383;51.114;13.666;2023-03-01T12:51:51;12.32;;;5.63;;
36353;SDS011;22383;51.114;13.666;2023-03-01T12:54:30;16.10;;;6.05;;
36353;SDS011;22383;51.114;13.666;2023-03-01T12:57:24;16.83;;;6.75;;
36353;SDS011;22383;51.114;13.666;2023-03-01T13:03:20;19.13;;;6.38;;
36353;SDS011;22383;51.114;13.666;2023-03-01T13:15:29;14.90;;;6.05;;
36353;SDS011;22383;51.114;13.666;2023-03-01T13:20:56;18.83;;;5.88;;
36353;SDS011;22383;51.114;13.666;2023-03-01T13:23:36;17.98;;;6.85;;
36353;SDS011;22383;51.114;13.666;2023-03-01T13:31:11;11.80;;;6.18;;
36353;SDS011;22383;51.114;13.666;2023-03-01T13:41:54;17.85;;;7.53;;
36353;SDS011;22383;51.114;13.666;2023-03-01T13:44:29;16.48;;;4.80;;
36353;SDS011;22383;51.114;13.666;2023-03-01T13:49:36;18.42;;;6.95;;
36353;SDS011;22383;51.114;13.666;2023-03-01T13:52:22;15.35;;;5.28;;
36353;SDS011;22383;51.114;13.666;2023-03-01T13:57:47;20.05;;;5.72;;
36353;SDS011;22383;51.114;13.666;2023-03-01T14:00:33;19.35;;;6.00;;
36353;SDS011;22383;51.114;13.666;2023-03-01T14:03:03;21.33;;;7.55;;
36353;SDS011;22383;51.114;13.666;2023-03-01T14:05:43;9.20;;;4.65;;
36353;SDS011;22383;51.114;13.666;2023-03-01T14:08:38;15.00;;;6.63;;
36353;SDS011;22383;51.114;13.666;2023-03-01T14:14:14;12.57;;;5.57;;
36353;SDS011;22383;51.114;13.666;2023-03-01T14:19:28;15.98;;;5.22;;
36353;SDS011;22383;51.114;13.666;2023-03-01T14:24:31;24.77;;;6.93;;
36353;SDS011;22383;51.114;13.666;2023-03-01T14:27:08;17.00;;;6.47;;
36353;SDS011;22383;51.114;13.666;2023-03-01T14:29:43;14.82;;;4.72;;
36353;SDS011;22383;51.114;13.666;2023-03-01T14:32:24;13.48;;;4.80;;
36353;SDS011;22383;51.114;13.666;2023-03-01T14:34:53;15.23;;;4.68;;
36353;SDS011;22383;51.114;13.666;2023-03-01T14:37:32;11.85;;;5.53;;
36353;SDS011;22383;51.114;13.666;2023-03-01T14:40:04;13.93;;;5.32;;
36353;SDS011;22383;51.114;13.666;2023-03-01T14:45:02;21.15;;;6.03;;
36353;SDS011;22383;51.114;13.666;2023-03-01T14:47:31;12.90;;;5.22;;
36353;SDS011;22383;51.114;13.666;2023-03-01T14:52:42;11.80;;;5.45;;
36353;SDS011;22383;51.114;13.666;2023-03-01T14:55:18;12.85;;;5.53;;
36353;SDS011;22383;51.114;13.666;2023-03-01T14:57:51;21.92;;;6.60;;
36353;SDS011;22383;51.114;13.666;2023-03-01T15:00:20;18.67;;;5.22;;
36353;SDS011;22383;51.114;13.666;2023-03-01T15:02:55;18.42;;;5.75;;
36353;SDS011;22383;51.114;13.666;2023-03-01T15:05:31;15.63;;;6.53;;
36353;SDS011;22383;51.114;13.666;2023-03-01T15:07:59;17.58;;;6.28;;
36353;SDS011;22383;51.114;13.666;2023-03-01T15:10:31;17.65;;;5.60;;
36353;SDS011;22383;51.114;13.666;2023-03-01T15:15:48;9.90;;;5.32;;
36353;SDS011;22383;51.114;13.666;2023-03-01T15:18:19;12.15;;;5.63;;
36353;SDS011;22383;51.114;13.666;2023-03-01T15:20:49;15.15;;;5.95;;
36353;SDS011;22383;51.114;13.666;2023-03-01T15:23:24;13.02;;;5.18;;
36353;SDS011;22383;51.114;13.666;2023-03-01T15:25:53;10.90;;;4.63;;
36353;SDS011;22383;51.114;13.666;2023-03-01T15:28:31;18.65;;;4.72;;
36353;SDS011;22383;51.114;13.666;2023-03-01T15:31:06;13.55;;;5.22;;
36353;SDS011;22383;51.114;13.666;2023-03-01T15:33:45;21.67;;;7.05;;
36353;SDS011;22383;51.114;13.666;2023-03-01T15:36:31;14.88;;;6.00;;
36353;SDS011;22383;51.114;13.666;2023-03-01T15:44:34;19.58;;;5.05;;
36353;SDS011;22383;51.114;13.666;2023-03-01T15:47:31;15.43;;;6.57;;
36353;SDS011;22383;51.114;13.666;2023-03-01T15:49:59;14.02;;;5.90;;
36353;SDS011;22383;51.114;13.666;2023-03-01T15:52:39;13.07;;;5.03;;
36353;SDS011;22383;51.114;13.666;2023-03-01T15:55:17;16.17;;;6.25;;
36353;SDS011;22383;51.114;13.666;2023-03-01T15:57:47;8.83;;;4.27;;
36353;SDS011;22383;51.114;13.666;2023-03-01T16:00:15;16.27;;;5.07;;
36353;SDS011;22383;51.114;13.666;2023-03-01T16:02:46;13.63;;;4.80;;
36353;SDS011;22383;51.114;13.666;2023-03-01T16:05:22;20.30;;;7.30;;
36353;SDS011;22383;51.114;13.666;2023-03-01T16:07:54;12.00;;;5.25;;
36353;SDS011;22383;51.114;13.666;2023-03-01T16:10:22;14.90;;;4.63;;
36353;SDS011;22383;51.114;13.666;2023-03-01T16:12:50;11.32;;;4.90;;
36353;SDS011;22383;51.114;13.666;2023-03-01T16:15:29;12.07;;;4.85;;
36353;SDS011;22383;51.114;13.666;2023-03-01T16:17:59;8.93;;;3.88;;
36353;SDS011;22383;51.114;13.666;2023-03-01T16:20:27;10.18;;;4.50;;
36353;SDS011;22383;51.114;13.666;2023-03-01T16:23:00;15.70;;;5.15;;
36353;SDS011;22383;51.114;13.666;2023-03-01T16:25:29;14.52;;;6.22;;
36353;SDS011;22383;51.114;13.666;2023-03-01T16:28:01;12.52;;;4.90;;
36353;SDS011;22383;51.114;13.666;2023-03-01T16:30:40;15.38;;;5.38;;
36353;SDS011;22383;51.114;13.666;2023-03-01T16:33:11;16.90;;;5.97;;
36353;SDS011;22383;51.114;13.666;2023-03-01T16:36:00;10.32;;;5.07;;
36353;SDS011;22383;51.114;13.666;2023-03-01T16:38:29;15.27;;;5.05;;
36353;SDS011;22383;51.114;13.666;2023-03-01T16:40:58;11.73;;;4.65;;
36353;SDS011;22383;51.114;13.666;2023-03-01T16:43:28;11.00;;;4.80;;
36353;SDS011;22383;51.114;13.666;2023-03-01T16:45:56;20.73;;;6.57;;
36353;SDS011;22383;51.114;13.666;2023-03-01T16:48:25;21.08;;;6.93;;
36353;SDS011;22383;51.114;13.666;2023-03-01T16:50:56;8.30;;;4.47;;
36353;SDS011;22383;51.114;13.666;2023-03-01T16:53:27;13.32;;;5.45;;
36353;SDS011;22383;51.114;13.666;2023-03-01T16:55:58;13.85;;;5.32;;
36353;SDS011;22383;51.114;13.666;2023-03-01T16:58:25;13.65;;;5.10;;
36353;SDS011;22383;51.114;13.666;2023-03-01T17:00:52;12.77;;;5.28;;
36353;SDS011;22383;51.114;13.666;2023-03-01T17:03:22;15.70;;;6.22;;
36353;SDS011;22383;51.114;13.666;2023-03-01T17:05:50;19.67;;;5.68;;
36353;SDS011;22383;51.114;13.666;2023-03-01T17:08:17;20.88;;;6.63;;
36353;SDS011;22383;51.114;13.666;2023-03-01T17:10:47;25.60;;;7.88;;
36353;SDS011;22383;51.114;13.666;2023-03-01T17:13:15;32.85;;;11.15;;
36353;SDS011;22383;51.114;13.666;2023-03-01T17:15:42;19.75;;;8.85;;
36353;SDS011;22383;51.114;13.666;2023-03-01T17:18:09;25.50;;;8.65;;
36353;SDS011;22383;51.114;13.666;2023-03-01T17:20:36;18.80;;;6.68;;
36353;SDS011;22383;51.114;13.666;2023-03-01T17:23:04;23.35;;;6.50;;